sensor_id;sensor_type;location;lat;lon;timestamp;P1;durP1;ratioP1;P2;durP2;ratioP2
22571;SDS011;11452;53.368;14.658;2023-04-03T00:01:06;4.30;;;1.10;;
22571;SDS011;11452;53.368;14.658;2023-04-03T00:06:12;4.43;;;1.20;;
22571;SDS011;11452;53.368;14.658;2023-04-03T00:11:18;2.37;;;1.33;;
22571;SDS011;11452;53.368;14.658;2023-04-03T00:16:25;2.37;;;1.00;;
22571;SDS011;11452;53.368;14.658;2023-04-03T00:21:31;3.80;;;1.33;;
22571;SDS011;11452;53.368;14.658;2023-04-03T00:26:36;3.97;;;1.37;;
22571;SDS011;11452;53.368;14.658;2023-04-03T00:31:43;1.80;;;1.10;;
22571;SDS011;11452;53.368;14.658;2023-04-03T00:36:48;3.40;;;0.93;;
22571;SDS011;11452;53.368;14.658;2023-04-03T00:41:55;3.30;;;0.93;;
22571;SDS011;11452;53.368;14.658;2023-04-03T00:47:02;2.97;;;1.00;;
22571;SDS011;11452;53.368;14.658;2023-04-03T00:52:10;2.60;;;0.90;;
22571;SDS011;11452;53.368;14.658;2023-04-03T00:57:19;3.20;;;1.20;;
22571;SDS011;11452;53.368;14.658;2023-04-03T01:02:26;6.87;;;1.87;;
22571;SDS011;11452;53.368;14.658;2023-04-03T01:07:33;2.47;;;1.17;;
22571;SDS011;11452;53.368;14.658;2023-04-03T01:12:42;7.90;;;1.53;;
22571;SDS011;11452;53.368;14.658;2023-04-03T01:17:53;1.87;;;1.00;;
22571;SDS011;11452;53.368;14.658;2023-04-03T01:28:19;2.50;;;1.00;;
22571;SDS011;11452;53.368;14.658;2023-04-03T01:33:21;3.63;;;1.20;;
22571;SDS011;11452;53.368;14.658;2023-04-03T01:38:27;2.77;;;1.40;;
22571;SDS011;11452;53.368;14.658;2023-04-03T01:43:33;1.17;;;1.00;;
22571;SDS011;11452;53.368;14.658;2023-04-03T01:48:39;1.43;;;0.70;;
22571;SDS011;11452;53.368;14.658;2023-04-03T01:53:45;3.77;;;1.00;;
22571;SDS011;11452;53.368;14.658;2023-04-03T01:58:52;2.00;;;0.87;;
22571;SDS011;11452;53.368;14.658;2023-04-03T02:03:58;1.83;;;1.33;;
22571;SDS011;11452;53.368;14.658;2023-04-03T02:09:04;3.37;;;1.20;;
22571;SDS011;11452;53.368;14.658;2023-04-03T02:14:10;4.07;;;1.43;;
22571;SDS011;11452;53.368;14.658;2023-04-03T02:19:16;3.60;;;0.93;;
22571;SDS011;11452;53.368;14.658;2023-04-03T02:24:22;2.90;;;1.00;;
22571;SDS011;11452;53.368;14.658;2023-04-03T02:29:27;2.70;;;0.70;;
22571;SDS011;11452;53.368;14.658;2023-04-03T02:34:33;4.13;;;0.97;;
22571;SDS011;11452;53.368;14.658;2023-04-03T02:39:40;0.97;;;0.67;;
22571;SDS011;11452;53.368;14.658;2023-04-03T02:44:45;1.50;;;0.60;;
22571;SDS011;11452;53.368;14.658;2023-04-03T02:49:51;1.27;;;0.70;;
22571;SDS011;11452;53.368;14.658;2023-04-03T02:54:57;1.63;;;0.80;;
22571;SDS011;11452;53.368;14.658;2023-04-03T03:00:04;1.67;;;0.70;;
22571;SDS011;11452;53.368;14.658;2023-04-03T03:05:10;5.17;;;0.90;;
22571;SDS011;11452;53.368;14.658;2023-04-03T03:10:16;2.20;;;0.80;;
22571;SDS011;11452;53.368;14.658;2023-04-03T03:15:22;1.93;;;0.80;;
22571;SDS011;11452;53.368;14.658;2023-04-03T03:20:27;2.10;;;0.90;;
22571;SDS011;11452;53.368;14.658;2023-04-03T03:25:33;2.03;;;1.00;;
22571;SDS011;11452;53.368;14.658;2023-04-03T03:30:43;2.80;;;0.93;;
22571;SDS011;11452;53.368;14.658;2023-04-03T03:35:49;2.10;;;0.87;;
22571;SDS011;11452;53.368;14.658;2023-04-03T03:40:56;2.67;;;0.70;;
22571;SDS011;11452;53.368;14.658;2023-04-03T03:46:02;3.10;;;1.00;;
22571;SDS011;11452;53.368;14.658;2023-04-03T03:51:08;1.53;;;0.93;;
22571;SDS011;11452;53.368;14.658;2023-04-03T03:56:14;1.87;;;0.67;;
22571;SDS011;11452;53.368;14.658;2023-04-03T04:01:20;1.73;;;0.80;;
22571;SDS011;11452;53.368;14.658;2023-04-03T04:06:27;3.87;;;0.93;;
22571;SDS011;11452;53.368;14.658;2023-04-03T04:11:36;2.97;;;1.47;;
22571;SDS011;11452;53.368;14.658;2023-04-03T04:16:45;2.23;;;0.93;;
22571;SDS011;11452;53.368;14.658;2023-04-03T04:21:52;0.87;;;0.57;;
22571;SDS011;11452;53.368;14.658;2023-04-03T04:26:58;1.93;;;0.90;;
22571;SDS011;11452;53.368;14.658;2023-04-03T04:32:05;1.73;;;1.20;;
22571;SDS011;11452;53.368;14.658;2023-04-03T04:37:13;2.83;;;1.10;;
22571;SDS011;11452;53.368;14.658;2023-04-03T04:42:19;1.13;;;0.60;;
22571;SDS011;11452;53.368;14.658;2023-04-03T04:47:25;1.73;;;0.87;;
22571;SDS011;11452;53.368;14.658;2023-04-03T04:52:33;1.93;;;1.13;;
22571;SDS011;11452;53.368;14.658;2023-04-03T04:57:40;2.27;;;0.90;;
22571;SDS011;11452;53.368;14.658;2023-04-03T05:02:45;3.10;;;1.07;;
22571;SDS011;11452;53.368;14.658;2023-04-03T05:07:52;2.67;;;1.30;;
22571;SDS011;11452;53.368;14.658;2023-04-03T05:12:59;1.40;;;0.90;;
22571;SDS011;11452;53.368;14.658;2023-04-03T05:18:04;2.33;;;1.20;;
22571;SDS011;11452;53.368;14.658;2023-04-03T05:23:11;3.83;;;1.30;;
22571;SDS011;11452;53.368;14.658;2023-04-03T05:28:17;2.67;;;0.73;;
22571;SDS011;11452;53.368;14.658;2023-04-03T05:33:23;2.70;;;1.17;;
22571;SDS011;11452;53.368;14.658;2023-04-03T05:38:31;4.60;;;1.33;;
22571;SDS011;11452;53.368;14.658;2023-04-03T05:43:38;2.63;;;0.90;;
22571;SDS011;11452;53.368;14.658;2023-04-03T05:48:44;2.73;;;0.90;;
22571;SDS011;11452;53.368;14.658;2023-04-03T05:53:52;0.93;;;0.70;;
22571;SDS011;11452;53.368;14.658;2023-04-03T05:59:00;1.80;;;0.60;;
22571;SDS011;11452;53.368;14.658;2023-04-03T06:04:06;2.20;;;1.07;;
22571;SDS011;11452;53.368;14.658;2023-04-03T06:09:13;2.20;;;1.00;;
22571;SDS011;11452;53.368;14.658;2023-04-03T06:14:20;2.20;;;0.70;;
22571;SDS011;11452;53.368;14.658;2023-04-03T06:19:26;2.03;;;0.83;;
22571;SDS011;11452;53.368;14.658;2023-04-03T06:24:32;0.57;;;0.57;;
22571;SDS011;11452;53.368;14.658;2023-04-03T06:29:39;1.20;;;0.90;;
22571;SDS011;11452;53.368;14.658;2023-04-03T06:34:45;4.03;;;0.90;;
22571;SDS011;11452;53.368;14.658;2023-04-03T06:39:50;1.10;;;0.90;;
22571;SDS011;11452;53.368;14.658;2023-04-03T06:44:56;3.33;;;1.00;;
22571;SDS011;11452;53.368;14.658;2023-04-03T06:50:02;2.43;;;0.90;;
22571;SDS011;11452;53.368;14.658;2023-04-03T06:55:08;1.60;;;0.93;;
22571;SDS011;11452;53.368;14.658;2023-04-03T07:00:15;2.20;;;0.77;;
22571;SDS011;11452;53.368;14.658;2023-04-03T07:05:21;1.80;;;0.63;;
22571;SDS011;11452;53.368;14.658;2023-04-03T07:10:26;2.57;;;0.70;;
22571;SDS011;11452;53.368;14.658;2023-04-03T07:15:32;4.00;;;1.00;;
22571;SDS011;11452;53.368;14.658;2023-04-03T07:20:38;1.73;;;0.87;;
22571;SDS011;11452;53.368;14.658;2023-04-03T07:25:47;2.00;;;0.93;;
22571;SDS011;11452;53.368;14.658;2023-04-03T07:30:59;1.93;;;0.70;;
22571;SDS011;11452;53.368;14.658;2023-04-03T07:36:05;5.67;;;0.87;;
22571;SDS011;11452;53.368;14.658;2023-04-03T07:41:15;2.50;;;1.10;;
22571;SDS011;11452;53.368;14.658;2023-04-03T07:46:23;2.10;;;0.80;;
22571;SDS011;11452;53.368;14.658;2023-04-03T07:51:29;2.30;;;0.90;;
22571;SDS011;11452;53.368;14.658;2023-04-03T07:56:35;3.63;;;1.30;;
22571;SDS011;11452;53.368;14.658;2023-04-03T08:01:41;1.50;;;0.90;;
22571;SDS011;11452;53.368;14.658;2023-04-03T08:06:47;2.30;;;1.10;;
22571;SDS011;11452;53.368;14.658;2023-04-03T08:11:52;2.20;;;1.30;;
22571;SDS011;11452;53.368;14.658;2023-04-03T08:16:58;3.00;;;1.13;;
22571;SDS011;11452;53.368;14.658;2023-04-03T08:22:04;2.03;;;1.10;;
22571;SDS011;11452;53.368;14.658;2023-04-03T08:27:10;1.77;;;0.97;;
22571;SDS011;11452;53.368;14.658;2023-04-03T08:32:15;1.67;;;0.90;;
22571;SDS011;11452;53.368;14.658;2023-04-03T08:37:21;2.93;;;1.37;;
22571;SDS011;11452;53.368;14.658;2023-04-03T08:42:34;1.43;;;1.20;;
22571;SDS011;11452;53.368;14.658;2023-04-03T08:53:04;4.87;;;1.43;;
22571;SDS011;11452;53.368;14.658;2023-04-03T08:58:16;2.00;;;1.20;;
22571;SDS011;11452;53.368;14.658;2023-04-03T09:03:38;2.70;;;1.20;;
22571;SDS011;11452;53.368;14.658;2023-04-03T09:19:28;2.63;;;0.90;;
22571;SDS011;11452;53.368;14.658;2023-04-03T09:24:38;1.67;;;1.10;;
22571;SDS011;11452;53.368;14.658;2023-04-03T09:29:45;1.60;;;0.63;;
22571;SDS011;11452;53.368;14.658;2023-04-03T09:34:51;2.67;;;1.10;;
22571;SDS011;11452;53.368;14.658;2023-04-03T09:40:01;1.50;;;0.87;;
22571;SDS011;11452;53.368;14.658;2023-04-03T09:45:18;1.37;;;0.90;;
22571;SDS011;11452;53.368;14.658;2023-04-03T09:50:20;2.40;;;1.10;;
22571;SDS011;11452;53.368;14.658;2023-04-03T09:55:27;1.53;;;1.30;;
22571;SDS011;11452;53.368;14.658;2023-04-03T10:00:37;1.47;;;0.77;;
22571;SDS011;11452;53.368;14.658;2023-04-03T10:05:44;4.57;;;1.07;;
22571;SDS011;11452;53.368;14.658;2023-04-03T10:11:09;2.00;;;1.20;;
22571;SDS011;11452;53.368;14.658;2023-04-03T10:16:20;3.83;;;2.03;;
22571;SDS011;11452;53.368;14.658;2023-04-03T10:32:26;4.80;;;1.40;;
22571;SDS011;11452;53.368;14.658;2023-04-03T10:37:58;2.47;;;0.63;;
22571;SDS011;11452;53.368;14.658;2023-04-03T10:43:06;2.47;;;0.80;;
22571;SDS011;11452;53.368;14.658;2023-04-03T10:53:52;2.03;;;1.23;;
22571;SDS011;11452;53.368;14.658;2023-04-03T10:59:09;4.00;;;1.23;;
22571;SDS011;11452;53.368;14.658;2023-04-03T11:04:28;3.07;;;0.63;;
22571;SDS011;11452;53.368;14.658;2023-04-03T11:09:37;0.80;;;0.80;;
22571;SDS011;11452;53.368;14.658;2023-04-03T11:14:44;1.70;;;0.90;;
22571;SDS011;11452;53.368;14.658;2023-04-03T11:25:13;4.93;;;1.30;;
22571;SDS011;11452;53.368;14.658;2023-04-03T11:30:19;2.30;;;1.23;;
22571;SDS011;11452;53.368;14.658;2023-04-03T11:35:26;2.60;;;1.17;;
22571;SDS011;11452;53.368;14.658;2023-04-03T11:40:33;2.37;;;1.33;;
22571;SDS011;11452;53.368;14.658;2023-04-03T11:45:55;2.30;;;1.10;;
22571;SDS011;11452;53.368;14.658;2023-04-03T12:01:53;2.00;;;0.97;;
22571;SDS011;11452;53.368;14.658;2023-04-03T12:07:12;1.27;;;0.83;;
22571;SDS011;11452;53.368;14.658;2023-04-03T12:17:40;1.63;;;1.10;;
22571;SDS011;11452;53.368;14.658;2023-04-03T12:23:32;1.40;;;1.20;;
22571;SDS011;11452;53.368;14.658;2023-04-03T12:28:13;2.77;;;1.30;;
22571;SDS011;11452;53.368;14.658;2023-04-03T12:33:24;1.37;;;1.20;;
22571;SDS011;11452;53.368;14.658;2023-04-03T12:44:17;1.53;;;0.77;;
22571;SDS011;11452;53.368;14.658;2023-04-03T12:49:38;2.50;;;0.90;;
22571;SDS011;11452;53.368;14.658;2023-04-03T12:54:46;0.80;;;0.80;;
22571;SDS011;11452;53.368;14.658;2023-04-03T12:59:53;1.03;;;0.80;;
22571;SDS011;11452;53.368;14.658;2023-04-03T13:05:06;1.13;;;1.03;;
22571;SDS011;11452;53.368;14.658;2023-04-03T13:10:14;1.87;;;1.00;;
22571;SDS011;11452;53.368;14.658;2023-04-03T13:15:23;2.33;;;1.10;;
22571;SDS011;11452;53.368;14.658;2023-04-03T13:20:33;2.83;;;1.27;;
22571;SDS011;11452;53.368;14.658;2023-04-03T13:25:42;1.63;;;1.00;;
22571;SDS011;11452;53.368;14.658;2023-04-03T13:30:54;4.40;;;1.30;;
22571;SDS011;11452;53.368;14.658;2023-04-03T13:36:03;1.77;;;1.13;;
22571;SDS011;11452;53.368;14.658;2023-04-03T13:41:26;2.83;;;1.00;;
22571;SDS011;11452;53.368;14.658;2023-04-03T13:46:38;2.30;;;1.00;;
22571;SDS011;11452;53.368;14.658;2023-04-03T13:51:44;1.00;;;0.70;;
22571;SDS011;11452;53.368;14.658;2023-04-03T13:56:54;1.53;;;0.87;;
22571;SDS011;11452;53.368;14.658;2023-04-03T14:07:15;1.90;;;1.10;;
22571;SDS011;11452;53.368;14.658;2023-04-03T14:12:31;2.20;;;1.47;;
22571;SDS011;11452;53.368;14.658;2023-04-03T14:17:41;1.20;;;0.80;;
22571;SDS011;11452;53.368;14.658;2023-04-03T14:22:47;2.97;;;1.50;;
22571;SDS011;11452;53.368;14.658;2023-04-03T14:27:54;2.80;;;1.17;;
22571;SDS011;11452;53.368;14.658;2023-04-03T14:33:01;1.47;;;0.87;;
22571;SDS011;11452;53.368;14.658;2023-04-03T14:38:20;2.10;;;1.20;;
22571;SDS011;11452;53.368;14.658;2023-04-03T14:43:28;1.97;;;0.90;;
22571;SDS011;11452;53.368;14.658;2023-04-03T14:48:33;3.70;;;1.30;;
22571;SDS011;11452;53.368;14.658;2023-04-03T14:53:39;1.70;;;1.10;;
22571;SDS011;11452;53.368;14.658;2023-04-03T14:58:46;1.93;;;1.00;;
22571;SDS011;11452;53.368;14.658;2023-04-03T15:03:53;1.10;;;1.00;;
22571;SDS011;11452;53.368;14.658;2023-04-03T15:08:59;2.03;;;1.07;;
22571;SDS011;11452;53.368;14.658;2023-04-03T15:14:08;1.20;;;1.00;;
22571;SDS011;11452;53.368;14.658;2023-04-03T15:19:13;1.67;;;1.00;;
22571;SDS011;11452;53.368;14.658;2023-04-03T15:24:19;1.60;;;1.10;;
22571;SDS011;11452;53.368;14.658;2023-04-03T15:29:24;2.17;;;1.17;;
22571;SDS011;11452;53.368;14.658;2023-04-03T15:34:30;1.40;;;1.10;;
22571;SDS011;11452;53.368;14.658;2023-04-03T15:39:36;2.37;;;1.53;;
22571;SDS011;11452;53.368;14.658;2023-04-03T15:44:41;2.67;;;1.30;;
22571;SDS011;11452;53.368;14.658;2023-04-03T15:49:47;1.33;;;1.00;;
22571;SDS011;11452;53.368;14.658;2023-04-03T15:54:53;3.53;;;0.80;;
22571;SDS011;11452;53.368;14.658;2023-04-03T15:59:58;1.63;;;0.83;;
22571;SDS011;11452;53.368;14.658;2023-04-03T16:05:06;3.00;;;1.40;;
22571;SDS011;11452;53.368;14.658;2023-04-03T16:10:15;2.90;;;1.50;;
22571;SDS011;11452;53.368;14.658;2023-04-03T16:15:22;1.70;;;1.30;;
22571;SDS011;11452;53.368;14.658;2023-04-03T16:20:30;2.67;;;1.10;;
22571;SDS011;11452;53.368;14.658;2023-04-03T16:25:36;2.40;;;1.53;;
22571;SDS011;11452;53.368;14.658;2023-04-03T16:30:42;3.23;;;1.67;;
22571;SDS011;11452;53.368;14.658;2023-04-03T16:35:51;3.70;;;2.03;;
22571;SDS011;11452;53.368;14.658;2023-04-03T16:40:56;1.53;;;1.40;;
22571;SDS011;11452;53.368;14.658;2023-04-03T16:46:04;2.10;;;1.33;;
22571;SDS011;11452;53.368;14.658;2023-04-03T16:51:09;2.10;;;1.00;;
22571;SDS011;11452;53.368;14.658;2023-04-03T16:56:16;3.40;;;1.10;;
22571;SDS011;11452;53.368;14.658;2023-04-03T17:01:22;1.00;;;0.67;;
22571;SDS011;11452;53.368;14.658;2023-04-03T17:06:28;2.70;;;1.40;;
22571;SDS011;11452;53.368;14.658;2023-04-03T17:11:34;2.03;;;1.20;;
22571;SDS011;11452;53.368;14.658;2023-04-03T17:16:41;2.93;;;1.10;;
22571;SDS011;11452;53.368;14.658;2023-04-03T17:21:47;1.30;;;1.20;;
22571;SDS011;11452;53.368;14.658;2023-04-03T17:26:52;4.93;;;2.03;;
22571;SDS011;11452;53.368;14.658;2023-04-03T17:31:58;4.60;;;2.67;;
22571;SDS011;11452;53.368;14.658;2023-04-03T17:37:04;3.13;;;1.57;;
22571;SDS011;11452;53.368;14.658;2023-04-03T17:42:09;3.23;;;1.90;;
22571;SDS011;11452;53.368;14.658;2023-04-03T17:47:15;5.70;;;2.53;;
22571;SDS011;11452;53.368;14.658;2023-04-03T17:52:20;4.50;;;1.80;;
22571;SDS011;11452;53.368;14.658;2023-04-03T17:57:28;5.47;;;1.70;;
22571;SDS011;11452;53.368;14.658;2023-04-03T18:02:34;3.07;;;1.67;;
22571;SDS011;11452;53.368;14.658;2023-04-03T18:07:39;3.40;;;1.30;;
22571;SDS011;11452;53.368;14.658;2023-04-03T18:12:46;2.77;;;1.60;;
22571;SDS011;11452;53.368;14.658;2023-04-03T18:17:52;2.93;;;1.50;;
22571;SDS011;11452;53.368;14.658;2023-04-03T18:22:59;1.67;;;1.30;;
22571;SDS011;11452;53.368;14.658;2023-04-03T18:28:05;2.07;;;1.63;;
22571;SDS011;11452;53.368;14.658;2023-04-03T18:33:11;4.93;;;1.60;;
22571;SDS011;11452;53.368;14.658;2023-04-03T18:38:16;1.83;;;1.30;;
22571;SDS011;11452;53.368;14.658;2023-04-03T18:43:23;4.10;;;1.60;;
22571;SDS011;11452;53.368;14.658;2023-04-03T18:48:31;6.43;;;2.40;;
22571;SDS011;11452;53.368;14.658;2023-04-03T18:53:38;2.93;;;2.00;;
22571;SDS011;11452;53.368;14.658;2023-04-03T18:58:44;5.30;;;2.07;;
22571;SDS011;11452;53.368;14.658;2023-04-03T19:03:49;2.93;;;1.50;;
22571;SDS011;11452;53.368;14.658;2023-04-03T19:08:55;3.17;;;1.80;;
22571;SDS011;11452;53.368;14.658;2023-04-03T19:14:02;5.63;;;2.17;;
22571;SDS011;11452;53.368;14.658;2023-04-03T19:19:10;7.53;;;2.90;;
22571;SDS011;11452;53.368;14.658;2023-04-03T19:24:16;5.23;;;3.00;;
22571;SDS011;11452;53.368;14.658;2023-04-03T19:29:22;4.83;;;2.30;;
22571;SDS011;11452;53.368;14.658;2023-04-03T19:34:28;6.97;;;2.53;;
22571;SDS011;11452;53.368;14.658;2023-04-03T19:39:35;5.67;;;2.23;;
22571;SDS011;11452;53.368;14.658;2023-04-03T19:44:41;4.83;;;2.47;;
22571;SDS011;11452;53.368;14.658;2023-04-03T19:49:47;6.40;;;2.50;;
22571;SDS011;11452;53.368;14.658;2023-04-03T19:54:53;4.93;;;3.00;;
22571;SDS011;11452;53.368;14.658;2023-04-03T19:59:59;5.60;;;2.73;;
22571;SDS011;11452;53.368;14.658;2023-04-03T20:05:06;6.20;;;3.37;;
22571;SDS011;11452;53.368;14.658;2023-04-03T20:10:14;4.43;;;2.90;;
22571;SDS011;11452;53.368;14.658;2023-04-03T20:15:19;6.03;;;3.00;;
22571;SDS011;11452;53.368;14.658;2023-04-03T20:20:25;3.80;;;2.30;;
22571;SDS011;11452;53.368;14.658;2023-04-03T20:25:31;5.83;;;2.93;;
22571;SDS011;11452;53.368;14.658;2023-04-03T20:30:38;5.37;;;2.33;;
22571;SDS011;11452;53.368;14.658;2023-04-03T20:35:45;2.80;;;2.13;;
22571;SDS011;11452;53.368;14.658;2023-04-03T20:40:51;7.33;;;3.20;;
22571;SDS011;11452;53.368;14.658;2023-04-03T20:46:00;3.20;;;2.33;;
22571;SDS011;11452;53.368;14.658;2023-04-03T20:51:13;6.40;;;2.50;;
22571;SDS011;11452;53.368;14.658;2023-04-03T20:56:15;3.73;;;2.30;;
22571;SDS011;11452;53.368;14.658;2023-04-03T21:01:21;3.17;;;2.27;;
22571;SDS011;11452;53.368;14.658;2023-04-03T21:23:14;4.17;;;2.40;;
22571;SDS011;11452;53.368;14.658;2023-04-03T21:28:20;8.07;;;2.23;;
22571;SDS011;11452;53.368;14.658;2023-04-03T21:33:27;3.60;;;2.00;;
22571;SDS011;11452;53.368;14.658;2023-04-03T21:38:32;10.37;;;2.40;;
22571;SDS011;11452;53.368;14.658;2023-04-03T21:43:38;8.40;;;2.70;;
22571;SDS011;11452;53.368;14.658;2023-04-03T21:48:44;4.80;;;2.67;;
22571;SDS011;11452;53.368;14.658;2023-04-03T21:53:52;7.00;;;2.83;;
22571;SDS011;11452;53.368;14.658;2023-04-03T21:59:01;7.43;;;2.80;;
22571;SDS011;11452;53.368;14.658;2023-04-03T22:04:07;5.77;;;2.30;;
22571;SDS011;11452;53.368;14.658;2023-04-03T22:09:13;7.83;;;2.67;;
22571;SDS011;11452;53.368;14.658;2023-04-03T22:14:19;8.23;;;2.67;;
22571;SDS011;11452;53.368;14.658;2023-04-03T22:19:24;5.07;;;2.30;;
22571;SDS011;11452;53.368;14.658;2023-04-03T22:24:31;2.77;;;2.23;;
22571;SDS011;11452;53.368;14.658;2023-04-03T22:29:37;5.70;;;2.40;;
22571;SDS011;11452;53.368;14.658;2023-04-03T22:34:43;5.07;;;2.33;;
22571;SDS011;11452;53.368;14.658;2023-04-03T22:39:49;6.10;;;2.60;;
22571;SDS011;11452;53.368;14.658;2023-04-03T22:44:56;3.40;;;2.10;;
22571;SDS011;11452;53.368;14.658;2023-04-03T22:50:01;7.60;;;2.40;;
22571;SDS011;11452;53.368;14.658;2023-04-03T22:55:08;4.73;;;2.50;;
22571;SDS011;11452;53.368;14.658;2023-04-03T23:00:16;6.27;;;2.10;;
22571;SDS011;11452;53.368;14.658;2023-04-03T23:05:23;6.57;;;1.93;;
22571;SDS011;11452;53.368;14.658;2023-04-03T23:10:28;6.47;;;2.73;;
22571;SDS011;11452;53.368;14.658;2023-04-03T23:15:34;3.23;;;1.60;;
22571;SDS011;11452;53.368;14.658;2023-04-03T23:20:40;5.63;;;2.50;;
22571;SDS011;11452;53.368;14.658;2023-04-03T23:25:50;6.43;;;2.40;;
22571;SDS011;11452;53.368;14.658;2023-04-03T23:31:02;3.20;;;2.00;;
22571;SDS011;11452;53.368;14.658;2023-04-03T23:36:12;4.83;;;2.27;;
22571;SDS011;11452;53.368;14.658;2023-04-03T23:41:22;4.77;;;2.40;;
22571;SDS011;11452;53.368;14.658;2023-04-03T23:46:28;3.77;;;2.30;;
22571;SDS011;11452;53.368;14.658;2023-04-03T23:51:33;4.47;;;2.30;;
22571;SDS011;11452;53.368;14.658;2023-04-03T23:56:39;5.40;;;2.67;;
